createdAt,value
2019-05-07T00:01:46.099Z,99.90
2019-05-07T00:06:43.467Z,99.90
2019-05-07T00:11:42.463Z,99.90
2019-05-07T00:16:37.555Z,99.90
2019-05-07T00:21:33.430Z,99.90
2019-05-07T00:26:29.363Z,99.90
2019-05-07T00:31:25.142Z,99.90
2019-05-07T00:36:34.038Z,99.90
2019-05-07T00:41:38.961Z,99.90
2019-05-07T00:46:34.945Z,99.90
2019-05-07T00:51:33.319Z,99.90
2019-05-07T00:56:29.540Z,99.90
2019-05-07T01:01:25.365Z,99.90
2019-05-07T01:06:22.721Z,99.90
2019-05-07T01:11:18.649Z,99.90
2019-05-07T01:16:14.912Z,99.90
2019-05-07T01:21:10.624Z,99.90
2019-05-07T01:26:06.585Z,99.90
2019-05-07T01:31:02.349Z,99.90
2019-05-07T01:36:19.951Z,99.90
2019-05-07T01:41:15.753Z,99.90
2019-05-07T01:46:12.401Z,99.90
2019-05-07T01:51:08.408Z,99.90
2019-05-07T01:56:04.256Z,99.90
2019-05-07T02:01:00.050Z,99.90
2019-05-07T02:06:13.169Z,99.90
2019-05-07T02:11:12.759Z,99.90
2019-05-07T02:16:08.074Z,99.90
2019-05-07T02:21:03.829Z,99.90
2019-05-07T02:25:59.733Z,99.90
2019-05-07T02:30:55.461Z,99.90
2019-05-07T02:35:53.435Z,99.90
2019-05-07T02:40:56.418Z,99.90
2019-05-07T02:46:25.039Z,99.90
2019-05-07T02:51:15.813Z,99.90
2019-05-07T02:56:12.971Z,99.90
2019-05-07T03:01:13.439Z,99.90
2019-05-07T03:06:07.559Z,99.90
2019-05-07T03:11:03.731Z,99.90
2019-05-07T03:16:03.758Z,99.90
2019-05-07T03:21:06.591Z,99.90
2019-05-07T03:26:13.667Z,99.90
2019-05-07T03:31:17.168Z,99.90
2019-05-07T03:36:16.562Z,99.90
2019-05-07T03:41:12.831Z,99.90
2019-05-07T03:46:14.176Z,99.90
2019-05-07T03:51:09.499Z,99.90
2019-05-07T03:56:05.418Z,99.90
2019-05-07T04:01:04.367Z,99.90
2019-05-07T04:05:58.957Z,99.90
2019-05-07T04:10:54.811Z,99.90
2019-05-07T04:15:52.578Z,99.90
2019-05-07T04:20:48.225Z,99.90
2019-05-07T04:26:07.020Z,99.90
2019-05-07T04:31:03.527Z,99.90
2019-05-07T04:36:14.393Z,99.90
2019-05-07T04:41:10.279Z,99.90
2019-05-07T04:46:06.069Z,99.90
2019-05-07T04:51:03.750Z,99.90
2019-05-07T04:55:59.629Z,99.90
2019-05-07T05:00:55.429Z,99.90
2019-05-07T05:05:53.177Z,99.90
2019-05-07T05:10:48.767Z,99.90
2019-05-07T05:15:44.650Z,99.90
2019-05-07T05:20:59.391Z,99.90
2019-05-07T05:25:55.300Z,99.90
2019-05-07T05:30:55.846Z,99.90
2019-05-07T05:35:52.784Z,99.90
2019-05-07T05:40:48.514Z,99.90
2019-05-07T05:45:45.325Z,99.90
2019-05-07T05:50:48.499Z,99.90
2019-05-07T05:55:45.198Z,99.90
2019-05-07T06:01:06.003Z,99.90
2019-05-07T06:06:14.677Z,99.90
2019-05-07T06:11:33.682Z,99.90
2019-05-07T06:16:36.587Z,99.90
2019-05-07T06:21:52.464Z,99.90
2019-05-07T06:26:47.504Z,99.90
2019-05-07T06:31:45.032Z,99.90
2019-05-07T06:36:42.416Z,99.90
2019-05-07T06:42:06.089Z,99.90
2019-05-07T06:47:02.530Z,99.90
2019-05-07T06:51:58.381Z,99.90
2019-05-07T06:56:54.377Z,99.90
2019-05-07T07:02:05.704Z,99.90
2019-05-07T07:07:27.207Z,99.90
2019-05-07T07:12:24.063Z,99.90
2019-05-07T07:17:18.237Z,99.90
2019-05-07T07:22:14.025Z,99.90
2019-05-07T07:27:09.930Z,99.90
2019-05-07T07:32:07.145Z,99.90
2019-05-07T07:37:10.881Z,99.90
2019-05-07T07:42:07.675Z,99.90
2019-05-07T07:47:03.706Z,99.90
2019-05-07T07:51:59.655Z,99.90
2019-05-07T07:57:12.486Z,99.90
2019-05-07T08:02:16.727Z,99.90
2019-05-07T08:07:12.636Z,99.90
2019-05-07T08:12:08.672Z,99.90
2019-05-07T08:17:06.898Z,99.90
2019-05-07T08:22:03.144Z,99.90
2019-05-07T08:26:58.928Z,99.90
2019-05-07T08:32:26.041Z,99.90
2019-05-07T08:37:24.205Z,99.90
2019-05-07T08:42:19.280Z,99.90
2019-05-07T08:47:23.947Z,99.90
2019-05-07T08:52:19.724Z,99.90
2019-05-07T08:57:15.644Z,99.90
2019-05-07T09:02:12.597Z,99.90
2019-05-07T09:07:08.555Z,99.90
2019-05-07T09:12:04.551Z,99.90
2019-05-07T09:17:02.448Z,99.90
2019-05-07T09:21:57.736Z,99.90
2019-05-07T09:27:06.381Z,99.90
2019-05-07T09:32:32.483Z,99.90
2019-05-07T09:37:28.880Z,99.90
2019-05-07T09:42:24.775Z,99.90
2019-05-07T09:47:21.904Z,99.90
2019-05-07T09:52:17.859Z,99.90
2019-05-07T09:57:27.219Z,99.90
2019-05-07T10:02:12.298Z,99.90
2019-05-07T10:07:09.189Z,99.90
2019-05-07T10:12:23.859Z,99.90
2019-05-07T10:17:29.715Z,99.90
2019-05-07T10:22:25.470Z,99.90
2019-05-07T10:27:21.886Z,99.90
2019-05-07T10:32:18.157Z,99.90
2019-05-07T10:37:13.950Z,99.90
2019-05-07T10:42:09.841Z,99.90
2019-05-07T10:47:42.755Z,99.90
2019-05-07T10:52:38.538Z,99.90
2019-05-07T10:57:34.265Z,99.90
2019-05-07T11:02:32.496Z,99.90
2019-05-07T11:07:28.223Z,99.90
2019-05-07T11:12:23.980Z,99.90
2019-05-07T11:17:28.498Z,99.90
2019-05-07T11:22:24.350Z,99.90
2019-05-07T11:27:22.427Z,99.90
2019-05-07T11:32:17.751Z,99.90
2019-05-07T11:37:13.658Z,99.90
2019-05-07T11:42:28.447Z,99.90
2019-05-07T11:47:31.874Z,98.50
2019-05-07T11:52:35.598Z,95.00
2019-05-07T11:57:29.983Z,91.30
2019-05-07T12:02:25.818Z,96.90
2019-05-07T12:07:22.314Z,92.70
2019-05-07T12:12:18.219Z,95.40
2019-05-07T12:17:13.965Z,94.80
2019-05-07T12:22:11.982Z,92.50
2019-05-07T12:27:07.481Z,86.40
2019-05-07T12:32:32.370Z,92.40
2019-05-07T12:37:28.207Z,91.00
2019-05-07T12:42:24.022Z,92.20
2019-05-07T12:47:19.777Z,92.60
2019-05-07T12:52:34.462Z,87.90
2019-05-07T12:57:30.230Z,86.80
2019-05-07T13:02:52.129Z,92.60
2019-05-07T13:07:55.511Z,88.70
2019-05-07T13:12:52.608Z,90.10
2019-05-07T13:17:48.551Z,87.20
2019-05-07T13:22:44.287Z,84.00
2019-05-07T13:27:40.323Z,84.40
2019-05-07T13:32:38.865Z,86.30
2019-05-07T13:37:36.900Z,85.30
2019-05-07T13:42:44.170Z,89.60
2019-05-07T13:47:42.295Z,88.30
2019-05-07T13:52:38.256Z,85.90
2019-05-07T13:58:22.940Z,87.50
2019-05-07T14:04:08.259Z,86.60
2019-05-07T14:09:47.552Z,81.70
2019-05-07T14:15:03.761Z,91.50
2019-05-07T14:20:49.083Z,89.30
2019-05-07T14:26:17.535Z,86.60
2019-05-07T14:32:24.554Z,88.50
2019-05-07T14:38:04.467Z,89.90
2019-05-07T14:43:52.643Z,91.30
2019-05-07T14:49:03.235Z,93.30
2019-05-07T14:54:18.443Z,92.10
2019-05-07T14:59:53.230Z,91.00
2019-05-07T15:05:30.096Z,94.10
2019-05-07T15:10:41.718Z,91.50
2019-05-07T15:21:43.026Z,92.60
2019-05-07T15:27:00.417Z,92.60
2019-05-07T15:32:18.754Z,95.80
2019-05-07T15:43:52.116Z,93.10
2019-05-07T15:49:46.834Z,92.40
2019-05-07T15:54:52.311Z,94.90
2019-05-07T16:00:38.218Z,94.80
2019-05-07T17:55:12.944Z,99.40
2019-05-07T18:00:08.338Z,99.90
2019-05-07T18:05:04.153Z,99.60
2019-05-07T18:10:02.259Z,99.90
2019-05-07T18:14:57.756Z,99.90
2019-05-07T18:19:53.749Z,99.90
2019-05-07T18:24:49.821Z,99.90
2019-05-07T18:29:45.840Z,99.90
2019-05-07T18:34:42.785Z,99.90
2019-05-07T18:39:38.848Z,99.90
2019-05-07T18:44:34.751Z,99.90
2019-05-07T18:49:30.651Z,99.90
2019-05-07T18:54:30.876Z,99.90
2019-05-07T18:59:26.619Z,99.90
2019-05-07T19:04:22.845Z,99.90
2019-05-07T19:09:18.838Z,99.90
2019-05-07T19:14:14.678Z,99.90
2019-05-07T19:19:12.409Z,99.90
2019-05-07T19:24:08.174Z,99.90
2019-05-07T19:29:04.107Z,99.90
2019-05-07T19:34:00.281Z,99.90
2019-05-07T19:38:56.679Z,99.90
2019-05-07T19:43:52.871Z,99.90
2019-05-07T19:48:48.740Z,99.90
2019-05-07T19:53:44.626Z,99.90
2019-05-07T19:58:41.915Z,99.90
2019-05-07T20:03:38.032Z,99.90
2019-05-07T20:08:33.871Z,99.90
2019-05-07T20:13:31.905Z,99.90
2019-05-07T20:18:27.481Z,99.90
2019-05-07T20:23:23.288Z,99.90
2019-05-07T20:28:19.318Z,99.90
2019-05-07T20:33:15.534Z,99.90
2019-05-07T20:38:11.449Z,99.90
2019-05-07T20:43:07.241Z,99.90
2019-05-07T20:48:04.003Z,99.90
2019-05-07T20:53:01.899Z,99.90
2019-05-07T20:57:58.369Z,99.90
2019-05-07T21:03:12.557Z,99.90
2019-05-07T21:08:08.624Z,99.90
2019-05-07T21:13:04.527Z,99.90
2019-05-07T21:18:00.356Z,99.90
2019-05-07T21:22:57.226Z,99.90
2019-05-07T21:27:53.207Z,99.90
2019-05-07T21:32:49.279Z,99.90
2019-05-07T21:37:45.292Z,99.90
2019-05-07T21:42:42.586Z,99.90
2019-05-07T21:47:39.155Z,99.90
2019-05-07T21:52:39.463Z,99.90
2019-05-07T21:57:55.369Z,99.90
2019-05-07T22:02:52.673Z,99.90
2019-05-07T22:07:48.638Z,99.90
2019-05-07T22:12:44.649Z,99.90
2019-05-07T22:17:44.207Z,99.90
2019-05-07T22:22:37.937Z,99.90
2019-05-07T22:27:33.679Z,99.90
2019-05-07T22:32:46.106Z,99.90
2019-05-07T22:37:41.933Z,99.90
2019-05-07T22:42:37.880Z,99.90
2019-05-07T22:47:33.595Z,99.90
2019-05-07T22:52:29.417Z,99.90
2019-05-07T22:57:44.251Z,99.90
2019-05-07T23:02:42.645Z,99.90
2019-05-07T23:07:37.723Z,99.90
2019-05-07T23:12:33.606Z,99.90
2019-05-07T23:17:32.558Z,99.90
2019-05-07T23:22:27.883Z,99.90
2019-05-07T23:27:23.781Z,99.90
2019-05-07T23:32:19.526Z,99.90
2019-05-07T23:37:15.310Z,99.90
2019-05-07T23:42:18.262Z,99.90
2019-05-07T23:47:14.021Z,99.90
2019-05-07T23:52:09.759Z,99.90
2019-05-07T23:57:09.506Z,99.90
